createdAt,value
2023-09-18T00:00:02.983Z,81.7
2023-09-18T00:01:05.154Z,81.7
2023-09-18T00:02:07.132Z,81.7
2023-09-18T00:03:09.088Z,81.8
2023-09-18T00:04:11.077Z,81.7
2023-09-18T00:05:13.382Z,81.7
2023-09-18T00:06:15.140Z,80.8
2023-09-18T00:07:17.067Z,81.4
2023-09-18T00:08:18.998Z,81.3
2023-09-18T00:09:20.982Z,80.7
2023-09-18T00:10:22.987Z,80.8
2023-09-18T00:11:25.151Z,80.4
2023-09-18T00:12:26.950Z,80.5
2023-09-18T00:13:28.956Z,80.7
2023-09-18T00:14:31.072Z,80
2023-09-18T00:15:32.962Z,80.4
2023-09-18T00:16:57.949Z,80.2
2023-09-18T00:17:59.435Z,80.1
2023-09-18T00:19:01.305Z,80.2
2023-09-18T00:20:03.476Z,80.3
2023-09-18T00:21:05.270Z,80.1
2023-09-18T00:22:07.264Z,80.1
2023-09-18T00:23:09.410Z,80.2
2023-09-18T00:24:11.484Z,79.9
2023-09-18T00:25:13.282Z,80
2023-09-18T00:26:15.429Z,80.4
2023-09-18T00:27:17.255Z,80.4
2023-09-18T00:28:19.274Z,80.4
2023-09-18T00:29:21.461Z,80.5
2023-09-18T00:30:23.271Z,80.5
2023-09-18T00:31:25.266Z,80.7
2023-09-18T00:32:27.517Z,79.9
2023-09-18T00:33:29.541Z,80.4
2023-09-18T00:34:31.247Z,80.2
2023-09-18T00:35:33.498Z,80.1
2023-09-18T00:36:35.260Z,79.8
2023-09-18T00:37:37.289Z,79.5
2023-09-18T00:38:39.409Z,79.5
2023-09-18T00:39:41.381Z,80
2023-09-18T00:40:43.289Z,79.7
2023-09-18T00:41:45.319Z,79.3
2023-09-18T00:42:47.526Z,78.8
2023-09-18T00:43:49.244Z,79.4
2023-09-18T00:44:51.269Z,79.1
2023-09-18T00:45:53.294Z,78.9
2023-09-18T00:46:55.465Z,78.7
2023-09-18T00:47:57.424Z,78.9
2023-09-18T00:48:59.249Z,78.9
2023-09-18T00:50:01.408Z,78.8
2023-09-18T00:51:03.259Z,78.9
2023-09-18T00:52:05.265Z,78.6
2023-09-18T00:53:07.575Z,78.1
2023-09-18T00:54:09.422Z,78.3
2023-09-18T00:55:11.244Z,77.8
2023-09-18T00:56:13.441Z,77.6
2023-09-18T00:57:15.274Z,77.8
2023-09-18T00:58:17.232Z,77.3
2023-09-18T00:59:19.478Z,76.8
2023-09-18T01:00:21.272Z,76.9
2023-09-18T01:01:23.418Z,77.2
2023-09-18T01:02:25.543Z,76.9
2023-09-18T01:03:27.764Z,76.8
2023-09-18T01:04:29.255Z,77.3
2023-09-18T01:05:31.458Z,77.8
2023-09-18T01:06:33.254Z,76.6
2023-09-18T01:07:35.223Z,76.8
2023-09-18T01:08:37.514Z,76.9
2023-09-18T01:09:39.326Z,77.1
2023-09-18T01:10:41.374Z,76.3
2023-09-18T01:11:43.220Z,76.4
2023-09-18T01:12:45.252Z,76.5
2023-09-18T01:13:47.222Z,76.4
2023-09-18T01:14:49.225Z,76.5
2023-09-18T01:15:51.330Z,76.1
2023-09-18T01:16:53.338Z,76.3
2023-09-18T01:17:55.393Z,76.8
2023-09-18T01:18:57.229Z,76.9
2023-09-18T01:19:59.374Z,76.8
2023-09-18T01:21:01.207Z,76.3
2023-09-18T01:22:03.194Z,76.6
2023-09-18T01:23:05.471Z,76.8
2023-09-18T01:24:07.192Z,76.2
2023-09-18T01:25:09.340Z,76.7
2023-09-18T01:26:14.098Z,76.9
2023-09-18T01:27:14.506Z,76.5
2023-09-18T01:28:16.552Z,76.5
2023-09-18T01:29:18.695Z,77
2023-09-18T01:30:20.500Z,77
2023-09-18T01:31:22.599Z,77.2
2023-09-18T01:32:24.657Z,77.1
2023-09-18T01:33:26.499Z,76.9
2023-09-18T01:34:28.558Z,77.2
2023-09-18T01:35:30.685Z,76.9
2023-09-18T01:36:32.508Z,76.9
2023-09-18T01:37:34.492Z,77.2
2023-09-18T01:38:36.725Z,76.8
2023-09-18T01:39:38.534Z,76.7
2023-09-18T01:40:40.563Z,77.3
2023-09-18T01:41:42.496Z,76.8
2023-09-18T01:42:44.490Z,76.7
2023-09-18T01:43:46.563Z,76.8
2023-09-18T01:44:48.495Z,76.8
2023-09-18T01:45:50.479Z,77.1
2023-09-18T01:46:52.604Z,76.8
2023-09-18T01:47:54.559Z,77.6
2023-09-18T01:48:56.508Z,77.2
2023-09-18T01:49:58.649Z,77.7
2023-09-18T01:51:00.503Z,77.8
2023-09-18T01:52:02.533Z,77.9
2023-09-18T01:53:04.621Z,77.7
2023-09-18T01:54:06.501Z,78
2023-09-18T01:55:08.495Z,78.1
2023-09-18T01:56:10.752Z,77.7
2023-09-18T01:57:12.495Z,77.6
2023-09-18T01:58:14.999Z,78.4
2023-09-18T01:59:17.202Z,78.1
2023-09-18T02:00:19.009Z,77.8
2023-09-18T02:01:21.056Z,77.6
2023-09-18T02:02:34.673Z,77.8
2023-09-18T02:04:31.771Z,78.2
2023-09-18T02:05:51.454Z,77.9
2023-09-18T02:06:53.348Z,77.5
2023-09-18T02:07:55.052Z,77.2
2023-09-18T02:08:57.918Z,77.3
2023-09-18T02:09:59.028Z,77.9
2023-09-18T02:11:01.051Z,77.3
2023-09-18T02:12:03.212Z,77.3
2023-09-18T02:13:05.039Z,77.2
2023-09-18T02:14:07.126Z,77.5
2023-09-18T02:15:09.038Z,77.3
2023-09-18T02:16:11.244Z,77.1
2023-09-18T02:17:13.316Z,76.9
2023-09-18T02:18:15.155Z,77.1
2023-09-18T02:19:17.029Z,77.3
2023-09-18T02:20:19.071Z,76.7
2023-09-18T02:21:21.039Z,76.6
2023-09-18T02:22:23.006Z,76.9
2023-09-18T02:23:25.119Z,76
2023-09-18T02:24:27.022Z,75.8
2023-09-18T02:25:29.021Z,75.8
2023-09-18T02:26:31.173Z,76.4
2023-09-18T02:27:33.036Z,76.4
2023-09-18T02:28:35.001Z,76.1
2023-09-18T02:29:37.152Z,76.2
2023-09-18T02:30:39.088Z,76
2023-09-18T02:31:41.202Z,75.2
2023-09-18T02:32:43.433Z,75.2
2023-09-18T02:33:45.142Z,75.3
2023-09-18T02:34:47.267Z,74.8
2023-09-18T02:35:49.276Z,74.9
2023-09-18T02:36:51.043Z,75
2023-09-18T02:37:52.985Z,74.6
2023-09-18T02:38:55.454Z,74.5
2023-09-18T02:39:57.010Z,74.6
2023-09-18T02:40:59.182Z,74.1
2023-09-18T02:42:01.173Z,74.2
2023-09-18T02:43:03.121Z,74.5
2023-09-18T02:44:05.133Z,74.1
2023-09-18T02:45:07.008Z,74.5
2023-09-18T02:46:09.134Z,74.1
2023-09-18T02:47:11.178Z,73.8
2023-09-18T02:48:13.127Z,73.9
2023-09-18T02:49:15.002Z,73.7
2023-09-18T02:50:17.215Z,73.2
2023-09-18T02:51:18.993Z,73
2023-09-18T02:52:21.118Z,73.2
2023-09-18T02:53:23.074Z,73.2
2023-09-18T02:54:25.015Z,72.7
2023-09-18T02:55:26.963Z,72.8
2023-09-18T02:56:28.995Z,72.5
2023-09-18T02:57:30.964Z,72.5
2023-09-18T02:58:33.131Z,72.5
2023-09-18T02:59:35.149Z,72.5
2023-09-18T03:00:44.337Z,72.5
2023-09-18T03:01:44.974Z,72.8
2023-09-18T03:02:46.992Z,72.6
2023-09-18T03:03:48.996Z,72.7
2023-09-18T03:04:50.717Z,72.8
2023-09-18T03:05:52.700Z,72.9
2023-09-18T03:06:54.694Z,73
2023-09-18T03:07:56.777Z,73.2
2023-09-18T03:08:58.694Z,73.4
2023-09-18T03:10:00.865Z,73.5
2023-09-18T03:11:02.850Z,73.4
2023-09-18T03:12:04.704Z,73.3
2023-09-18T03:13:06.732Z,73.7
2023-09-18T03:14:08.916Z,73.8
2023-09-18T03:15:11.033Z,74.1
2023-09-18T03:16:12.741Z,74.2
2023-09-18T03:17:14.888Z,74.6
2023-09-18T03:18:16.927Z,74.3
2023-09-18T03:19:18.692Z,74.4
2023-09-18T03:20:20.831Z,74.9
2023-09-18T03:21:22.713Z,74.8
2023-09-18T03:22:24.759Z,75
2023-09-18T03:23:26.983Z,75.1
2023-09-18T03:24:28.687Z,75.3
2023-09-18T03:25:51.832Z,75.5
2023-09-18T03:26:52.799Z,75.6
2023-09-18T03:27:54.751Z,75.5
2023-09-18T03:28:56.723Z,75.5
2023-09-18T03:29:58.863Z,75.8
2023-09-18T03:31:00.904Z,75.6
2023-09-18T03:32:02.863Z,75.7
2023-09-18T03:33:04.881Z,75.9
2023-09-18T03:34:06.719Z,75.8
2023-09-18T03:35:08.848Z,75.9
2023-09-18T03:36:10.739Z,76.2
2023-09-18T03:37:13.064Z,76.2
2023-09-18T03:38:14.786Z,76.4
2023-09-18T03:39:16.731Z,76.4
2023-09-18T03:40:18.738Z,76.5
2023-09-18T03:41:20.960Z,76.7
2023-09-18T03:42:22.711Z,76.9
2023-09-18T03:43:24.712Z,77
2023-09-18T03:44:26.928Z,77
2023-09-18T03:45:28.853Z,77.1
2023-09-18T03:46:30.762Z,77.3
2023-09-18T03:47:32.891Z,77.2
2023-09-18T03:48:34.808Z,77.1
2023-09-18T03:49:36.702Z,76.9
2023-09-18T03:50:42.053Z,77
2023-09-18T03:51:50.748Z,77
2023-09-18T03:52:52.724Z,77.2
2023-09-18T03:54:04.550Z,77.4
2023-09-18T03:55:04.879Z,77.5
2023-09-18T03:56:07.147Z,77.6
2023-09-18T03:57:08.852Z,77.6
2023-09-18T03:58:10.847Z,77.7
2023-09-18T03:59:12.984Z,77.9
2023-09-18T04:00:14.883Z,77.8
2023-09-18T04:01:17.152Z,78.1
2023-09-18T04:02:18.955Z,78.3
2023-09-18T04:03:21.028Z,78.4
2023-09-18T04:04:23.101Z,78.9
2023-09-18T04:05:25.165Z,78.5
2023-09-18T04:06:26.859Z,78.9
2023-09-18T04:07:28.826Z,78.9
2023-09-18T04:08:31.036Z,78.9
2023-09-18T04:09:32.863Z,79.1
2023-09-18T04:10:34.829Z,79.2
2023-09-18T04:11:36.927Z,79.4
2023-09-18T04:12:38.836Z,79.3
2023-09-18T04:13:40.865Z,79.5
2023-09-18T04:14:43.012Z,79.7
2023-09-18T04:15:44.949Z,79.7
2023-09-18T04:16:46.904Z,79.8
2023-09-18T04:17:49.393Z,80
2023-09-18T04:18:51.664Z,80.1
2023-09-18T04:19:53.008Z,80.2
2023-09-18T04:20:54.928Z,80.5
2023-09-18T04:21:56.827Z,80.7
2023-09-18T04:22:59.027Z,80.6
2023-09-18T04:24:00.843Z,80.8
2023-09-18T04:25:02.828Z,81
2023-09-18T04:26:05.004Z,81.1
2023-09-18T04:27:06.832Z,81.3
2023-09-18T04:28:08.833Z,81.3
2023-09-18T04:29:10.974Z,81.4
2023-09-18T04:30:12.828Z,81.5
2023-09-18T04:31:14.808Z,81.7
2023-09-18T04:32:17.172Z,81.8
2023-09-18T04:33:19.588Z,81.9
2023-09-18T04:34:21.124Z,82
2023-09-18T04:35:23.030Z,82.3
2023-09-18T04:36:24.835Z,82.3
2023-09-18T04:37:26.836Z,82.5
2023-09-18T04:38:28.931Z,82.7
2023-09-18T04:39:30.802Z,82.8
2023-09-18T04:40:32.814Z,82.9
2023-09-18T04:41:35.072Z,83.3
2023-09-18T04:42:36.802Z,83.3
2023-09-18T04:43:38.822Z,83.4
2023-09-18T04:44:40.976Z,83.6
2023-09-18T04:45:42.907Z,83.8
2023-09-18T04:46:44.858Z,84
2023-09-18T04:47:47.088Z,84
2023-09-18T04:48:48.815Z,84
2023-09-18T04:49:50.790Z,84
2023-09-18T04:50:53.004Z,84.3
2023-09-18T04:51:54.781Z,84.3
2023-09-18T04:52:56.787Z,84.5
2023-09-18T04:53:58.772Z,84.6
2023-09-18T04:55:00.784Z,84.7
2023-09-18T04:56:02.956Z,85
2023-09-18T04:57:04.771Z,85
2023-09-18T04:58:06.790Z,85.1
2023-09-18T04:59:09.025Z,85.2
2023-09-18T05:00:18.550Z,85.5
2023-09-18T05:01:19.172Z,85.5
2023-09-18T05:02:21.133Z,85.5
2023-09-18T05:03:23.396Z,85.7
2023-09-18T05:04:24.990Z,85.6
2023-09-18T05:05:27.225Z,85.7
2023-09-18T05:06:29.595Z,85.8
2023-09-18T05:07:30.988Z,86
2023-09-18T05:08:33.149Z,86
2023-09-18T05:09:35.082Z,86
2023-09-18T05:10:37.005Z,86
2023-09-18T05:11:38.998Z,86
2023-09-18T05:12:40.984Z,86.1
2023-09-18T05:13:42.971Z,86.1
2023-09-18T05:14:45.193Z,86.1
2023-09-18T05:15:46.974Z,86.1
2023-09-18T05:16:49.159Z,86.1
2023-09-18T05:17:51.148Z,86.2
2023-09-18T05:18:53.729Z,86.2
2023-09-18T05:19:54.969Z,86
2023-09-18T05:20:56.967Z,86.3
2023-09-18T05:21:59.059Z,86.1
2023-09-18T05:23:01.088Z,86.1
2023-09-18T05:24:02.997Z,86.2
2023-09-18T05:25:05.166Z,86.2
2023-09-18T05:26:07.022Z,86.1
2023-09-18T05:27:08.990Z,86.3
2023-09-18T05:28:10.994Z,86.1
2023-09-18T05:29:13.116Z,86.2
2023-09-18T05:30:14.961Z,86.2
2023-09-18T05:31:17.133Z,86.2
2023-09-18T05:32:18.998Z,86.2
2023-09-18T05:33:21.542Z,86.1
2023-09-18T05:34:23.058Z,86.2
2023-09-18T05:35:25.255Z,86.2
2023-09-18T05:36:30.730Z,86.2
2023-09-18T05:37:31.272Z,86.1
2023-09-18T05:38:33.354Z,86.1
2023-09-18T05:39:35.956Z,86.2
2023-09-18T05:40:37.654Z,86.3
2023-09-18T05:41:40.676Z,86.3
2023-09-18T05:42:42.751Z,86.3
2023-09-18T05:43:43.517Z,86.3
2023-09-18T05:44:45.252Z,86.5
2023-09-18T05:45:47.191Z,86.5
2023-09-18T05:46:49.381Z,86.7
2023-09-18T05:47:51.949Z,86.5
2023-09-18T05:48:53.658Z,86.5
2023-09-18T05:49:55.324Z,86.6
2023-09-18T05:50:57.201Z,86.6
2023-09-18T05:51:59.222Z,86.5
2023-09-18T05:53:01.256Z,86.7
2023-09-18T05:54:03.184Z,86.8
2023-09-18T05:55:06.484Z,86.8
2023-09-18T05:56:07.265Z,86.8
2023-09-18T05:57:09.200Z,86.6
2023-09-18T05:58:11.188Z,86.5
2023-09-18T05:59:13.327Z,86.7
2023-09-18T06:00:15.464Z,86.8
2023-09-18T06:01:17.531Z,86.8
2023-09-18T06:02:19.274Z,86.7
2023-09-18T06:03:21.575Z,86.8
2023-09-18T06:04:23.287Z,86.6
2023-09-18T06:05:25.335Z,86.6
2023-09-18T06:06:27.187Z,86.7
2023-09-18T06:07:29.167Z,86.4
2023-09-18T06:08:31.418Z,86.6
2023-09-18T06:09:33.162Z,86.8
2023-09-18T06:10:35.182Z,86.7
2023-09-18T06:11:37.239Z,86.8
2023-09-18T06:12:39.178Z,86.8
2023-09-18T06:13:41.150Z,86.8
2023-09-18T06:14:43.232Z,86.7
2023-09-18T06:15:45.177Z,86.6
2023-09-18T06:16:47.216Z,86.8
2023-09-18T06:17:49.311Z,86.8
2023-09-18T06:18:51.877Z,86.9
2023-09-18T06:19:53.285Z,86.8
2023-09-18T06:20:55.219Z,87
2023-09-18T06:21:57.158Z,87.1
2023-09-18T06:22:59.155Z,86.9
2023-09-18T06:24:01.660Z,87.1
2023-09-18T06:25:03.474Z,87.2
2023-09-18T06:26:05.645Z,86.9
2023-09-18T06:27:11.216Z,87
2023-09-18T06:28:11.587Z,86.7
2023-09-18T06:29:13.647Z,87
2023-09-18T06:30:15.598Z,87
2023-09-18T06:31:17.681Z,86.9
2023-09-18T06:32:19.789Z,87
2023-09-18T06:33:21.863Z,87.1
2023-09-18T06:34:23.741Z,87.2
2023-09-18T06:35:25.729Z,87.1
2023-09-18T06:36:27.741Z,87
2023-09-18T06:37:29.595Z,86.9
2023-09-18T06:38:31.692Z,86.9
2023-09-18T06:39:33.623Z,87
2023-09-18T06:40:35.628Z,86.9
2023-09-18T06:41:37.848Z,87
2023-09-18T06:42:43.635Z,86.9
2023-09-18T06:43:45.658Z,87
2023-09-18T06:44:49.047Z,87
2023-09-18T06:45:49.860Z,87
2023-09-18T06:46:52.313Z,86.9
2023-09-18T06:47:54.603Z,87
2023-09-18T06:48:56.091Z,86.9
2023-09-18T06:49:57.947Z,87.2
2023-09-18T06:50:59.858Z,87.1
2023-09-18T06:52:05.027Z,87.1
2023-09-18T06:53:07.435Z,87.2
2023-09-18T06:54:09.362Z,87.3
2023-09-18T06:55:11.667Z,87.3
2023-09-18T06:56:13.594Z,87.2
2023-09-18T06:57:15.525Z,87.3
2023-09-18T06:58:17.401Z,87.2
2023-09-18T06:59:19.662Z,87.3
2023-09-18T07:00:21.495Z,87.5
2023-09-18T07:01:23.411Z,87.4
2023-09-18T07:02:26.760Z,87.5
2023-09-18T07:03:29.650Z,87
2023-09-18T07:04:30.362Z,87.1
2023-09-18T07:05:32.440Z,87.1
2023-09-18T07:06:34.838Z,87.1
2023-09-18T07:07:36.338Z,86.9
2023-09-18T07:08:38.627Z,87
2023-09-18T07:11:03.218Z,86.9
2023-09-18T07:12:05.083Z,86.8
2023-09-18T07:13:06.773Z,86.7
2023-09-18T07:14:08.743Z,86.6
2023-09-18T07:15:10.731Z,86.6
2023-09-18T07:16:12.801Z,86.6
2023-09-18T07:17:14.851Z,86.2
2023-09-18T07:18:16.785Z,86.4
2023-09-18T07:19:18.938Z,86.6
2023-09-18T07:20:20.910Z,86.4
2023-09-18T07:21:22.753Z,86.4
2023-09-18T07:22:24.793Z,86.4
2023-09-18T07:23:26.864Z,86.5
2023-09-18T07:24:28.759Z,86.6
2023-09-18T07:25:30.765Z,86.4
2023-09-18T07:26:32.990Z,86.4
2023-09-18T07:27:35.132Z,86.2
2023-09-18T07:28:37.030Z,86
2023-09-18T07:29:39.035Z,86.1
2023-09-18T07:30:41.107Z,86.1
2023-09-18T07:31:43.423Z,85.9
2023-09-18T07:32:45.424Z,85.9
2023-09-18T07:33:47.299Z,85.4
2023-09-18T07:34:50.100Z,85.5
2023-09-18T07:35:52.058Z,85.9
2023-09-18T07:36:54.025Z,85.5
2023-09-18T07:37:55.741Z,85.4
2023-09-18T07:38:57.846Z,85.6
2023-09-18T07:39:59.875Z,85.5
2023-09-18T07:41:01.314Z,85.3
2023-09-18T07:42:03.318Z,85.3
2023-09-18T07:43:05.294Z,85.3
2023-09-18T07:44:07.311Z,85.3
2023-09-18T07:45:09.398Z,85.4
2023-09-18T07:46:11.500Z,85.7
2023-09-18T07:47:13.413Z,85.3
2023-09-18T07:48:15.488Z,85.3
2023-09-18T07:49:17.313Z,85.5
2023-09-18T07:50:20.353Z,85.7
2023-09-18T07:51:21.280Z,85.6
2023-09-18T07:52:23.471Z,85.7
2023-09-18T07:53:25.432Z,86.2
2023-09-18T07:54:27.378Z,86
2023-09-18T07:55:29.275Z,85.8
2023-09-18T07:56:31.431Z,85.7
2023-09-18T07:57:33.490Z,85.7
2023-09-18T07:58:35.308Z,85.8
2023-09-18T07:59:37.413Z,85.7
2023-09-18T08:00:39.264Z,85.4
2023-09-18T08:01:41.326Z,85.5
2023-09-18T08:02:44.366Z,85.9
2023-09-18T08:03:45.555Z,85.5
2023-09-18T08:04:47.280Z,85.6
2023-09-18T08:05:49.399Z,86.2
2023-09-18T08:06:51.282Z,86.7
2023-09-18T08:07:53.281Z,86.6
2023-09-18T08:08:56.263Z,86.2
2023-09-18T08:09:57.391Z,86.3
2023-09-18T08:11:03.193Z,86.7
2023-09-18T08:12:04.445Z,86.4
2023-09-18T08:13:06.562Z,86.6
2023-09-18T08:14:08.488Z,87
2023-09-18T08:15:10.402Z,86.6
2023-09-18T08:16:12.727Z,86.6
2023-09-18T08:17:14.686Z,86
2023-09-18T08:18:16.850Z,85.6
2023-09-18T08:19:18.790Z,85.5
2023-09-18T08:20:20.617Z,85
2023-09-18T08:21:22.444Z,84.8
2023-09-18T08:22:24.393Z,83.9
2023-09-18T08:23:26.744Z,83.8
2023-09-18T08:24:28.396Z,83.7
2023-09-18T08:25:31.083Z,83.7
2023-09-18T08:26:32.563Z,83.3
2023-09-18T08:27:34.392Z,83
2023-09-18T08:28:36.436Z,82.9
2023-09-18T08:29:38.495Z,82.9
2023-09-18T08:30:40.846Z,82.8
2023-09-18T08:31:42.405Z,82.7
2023-09-18T08:32:45.140Z,82.9
2023-09-18T08:33:46.378Z,83
2023-09-18T08:34:48.406Z,83.3
2023-09-18T08:35:50.529Z,83.4
2023-09-18T08:36:52.369Z,83.1
2023-09-18T08:37:54.389Z,82.9
2023-09-18T08:38:56.948Z,83.3
2023-09-18T08:39:58.412Z,83.2
2023-09-18T08:41:00.578Z,83.2
2023-09-18T08:42:02.391Z,83.2
2023-09-18T08:43:04.374Z,83.3
2023-09-18T08:44:06.438Z,83.3
2023-09-18T08:45:08.398Z,83.3
2023-09-18T08:46:10.638Z,83.2
2023-09-18T08:47:12.625Z,83.6
2023-09-18T08:48:14.662Z,83.5
2023-09-18T08:49:16.412Z,83.4
2023-09-18T08:50:18.570Z,83.5
2023-09-18T08:51:20.377Z,83.5
2023-09-18T08:52:22.382Z,83.4
2023-09-18T08:53:24.628Z,83.4
2023-09-18T08:54:26.376Z,83.3
2023-09-18T08:55:28.387Z,83.3
2023-09-18T08:56:30.613Z,83.1
2023-09-18T08:57:32.355Z,82.9
2023-09-18T08:58:34.393Z,83.3
2023-09-18T08:59:36.608Z,83.2
2023-09-18T09:00:38.366Z,82.9
2023-09-18T09:01:40.361Z,82.6
2023-09-18T09:02:42.651Z,82.8
2023-09-18T09:03:44.900Z,82.6
2023-09-18T09:04:46.565Z,82.7
2023-09-18T09:05:48.427Z,82.9
2023-09-18T09:06:50.372Z,83.2
2023-09-18T09:07:52.486Z,83.2
2023-09-18T09:08:55.048Z,82.8
2023-09-18T09:09:56.479Z,82.5
2023-09-18T09:10:58.444Z,82.2
2023-09-18T09:12:01.009Z,81.9
2023-09-18T09:13:02.464Z,81.8
2023-09-18T09:14:04.621Z,80.9
2023-09-18T09:15:06.690Z,81.2
2023-09-18T09:16:08.532Z,81
2023-09-18T09:17:10.469Z,80.5
2023-09-18T09:18:12.540Z,80.5
2023-09-18T09:19:14.330Z,80.7
2023-09-18T09:20:16.505Z,80.6
2023-09-18T09:21:18.802Z,81
2023-09-18T09:22:20.329Z,81.1
2023-09-18T09:23:22.903Z,81.5
2023-09-18T09:24:24.417Z,81.1
2023-09-18T09:25:26.924Z,81.2
2023-09-18T09:26:28.448Z,81
2023-09-18T09:27:30.497Z,80.5
2023-09-18T09:28:32.445Z,80.3
2023-09-18T09:29:34.439Z,80.2
2023-09-18T09:30:36.375Z,79.9
2023-09-18T09:31:38.542Z,79.4
2023-09-18T09:32:40.671Z,79.4
2023-09-18T09:33:42.427Z,79.4
2023-09-18T09:34:44.334Z,80
2023-09-18T09:35:46.442Z,80.3
2023-09-18T09:36:48.299Z,79.9
2023-09-18T09:37:50.307Z,79.8
2023-09-18T09:38:52.888Z,80.6
2023-09-18T09:39:54.376Z,81.3
2023-09-18T09:40:56.413Z,81.5
2023-09-18T09:41:58.481Z,81.2
2023-09-18T09:43:02.165Z,79.7
2023-09-18T09:44:02.656Z,80
2023-09-18T09:45:04.919Z,79.6
2023-09-18T09:46:06.660Z,79.5
2023-09-18T09:47:08.607Z,79.3
2023-09-18T09:48:11.068Z,79.5
2023-09-18T09:49:12.654Z,80
2023-09-18T09:50:15.027Z,80.2
2023-09-18T09:51:16.744Z,80.1
2023-09-18T09:52:18.818Z,80.1
2023-09-18T09:53:21.394Z,79.7
2023-09-18T09:54:22.623Z,79.3
2023-09-18T09:55:24.622Z,78.6
2023-09-18T09:56:26.764Z,79.3
2023-09-18T09:57:28.585Z,79.6
2023-09-18T09:58:30.717Z,79.6
2023-09-18T09:59:32.681Z,79.6
2023-09-18T10:00:34.770Z,79.8
2023-09-18T10:01:36.627Z,79.3
2023-09-18T10:02:39.208Z,79.9
2023-09-18T10:03:40.933Z,80.4
2023-09-18T10:04:42.696Z,79.9
2023-09-18T10:05:44.633Z,80
2023-09-18T10:06:46.813Z,79.9
2023-09-18T10:07:48.621Z,80.2
2023-09-18T10:08:50.663Z,79.9
2023-09-18T10:09:52.571Z,78.9
2023-09-18T10:10:54.579Z,79
2023-09-18T10:11:56.607Z,79.5
2023-09-18T10:12:58.602Z,79.6
2023-09-18T10:14:00.600Z,79.3
2023-09-18T10:15:03.549Z,78.7
2023-09-18T10:16:04.602Z,78.8
2023-09-18T10:17:06.628Z,79.3
2023-09-18T10:18:08.785Z,79.4
2023-09-18T10:19:10.585Z,79.5
2023-09-18T10:20:12.764Z,79.1
2023-09-18T10:21:14.813Z,79.8
2023-09-18T10:22:16.575Z,79
2023-09-18T10:23:18.782Z,79.2
2023-09-18T10:24:20.582Z,79
2023-09-18T10:25:22.569Z,77.6
2023-09-18T10:26:24.951Z,78.2
2023-09-18T10:27:26.550Z,77.8
2023-09-18T10:28:28.554Z,78.3
2023-09-18T10:29:30.778Z,78.8
2023-09-18T10:30:32.603Z,79.1
2023-09-18T10:31:34.585Z,78.6
2023-09-18T10:32:36.784Z,78.5
2023-09-18T10:33:38.549Z,78.5
2023-09-18T10:34:43.290Z,77.8
2023-09-18T10:35:43.712Z,77.3
2023-09-18T10:36:45.615Z,77.9
2023-09-18T10:37:47.588Z,76.8
2023-09-18T10:38:49.631Z,76.8
2023-09-18T10:39:51.829Z,76.3
2023-09-18T10:40:53.612Z,76.7
2023-09-18T10:41:55.846Z,76.8
2023-09-18T10:42:57.607Z,77.9
2023-09-18T10:43:59.586Z,77.5
2023-09-18T10:45:01.774Z,77.2
2023-09-18T10:46:03.617Z,74.8
2023-09-18T10:47:05.800Z,75.2
2023-09-18T10:48:07.835Z,75.7
2023-09-18T10:49:09.583Z,74.5
2023-09-18T10:50:11.615Z,75.2
2023-09-18T10:51:13.582Z,75.4
2023-09-18T10:52:15.592Z,75
2023-09-18T10:53:17.721Z,75.7
2023-09-18T10:54:19.587Z,74.9
2023-09-18T10:55:21.561Z,75
2023-09-18T10:56:23.902Z,72.5
2023-09-18T10:57:25.581Z,72.8
2023-09-18T10:58:27.676Z,73.7
2023-09-18T10:59:29.605Z,73.7
2023-09-18T11:00:32.244Z,74
2023-09-18T11:01:33.692Z,73.8
2023-09-18T11:02:37.087Z,74.9
2023-09-18T11:03:39.825Z,75.2
2023-09-18T11:04:40.420Z,75.6
2023-09-18T11:05:42.849Z,75.2
2023-09-18T11:06:44.487Z,75
2023-09-18T11:07:47.219Z,75.4
2023-09-18T11:08:49.119Z,75.6
2023-09-18T11:09:51.040Z,75.9
2023-09-18T11:10:52.807Z,75.7
2023-09-18T11:11:54.974Z,76.2
2023-09-18T11:12:56.770Z,76.4
2023-09-18T11:13:58.600Z,76.1
2023-09-18T11:15:00.825Z,76.3
2023-09-18T11:16:02.849Z,76.5
2023-09-18T11:17:04.433Z,76.4
2023-09-18T11:18:09.926Z,75.9
2023-09-18T11:19:10.756Z,76.4
2023-09-18T11:20:12.470Z,75.6
2023-09-18T11:21:14.431Z,75.4
2023-09-18T11:22:16.470Z,75.8
2023-09-18T11:23:18.591Z,76.5
2023-09-18T11:24:21.125Z,76.4
2023-09-18T11:25:22.439Z,75.7
2023-09-18T11:26:24.694Z,75.6
2023-09-18T11:27:26.554Z,76
2023-09-18T11:28:28.416Z,74.7
2023-09-18T11:29:30.678Z,74.9
2023-09-18T11:30:32.542Z,72.8
2023-09-18T11:31:34.626Z,71.1
2023-09-18T11:32:37.018Z,71.5
2023-09-18T11:33:38.944Z,70.8
2023-09-18T11:34:40.753Z,70.2
2023-09-18T11:35:42.915Z,71.1
2023-09-18T11:36:44.537Z,70
2023-09-18T11:37:46.410Z,70.4
2023-09-18T11:38:49.027Z,70.9
2023-09-18T11:39:50.404Z,70.8
2023-09-18T11:40:52.555Z,72.1
2023-09-18T11:41:54.463Z,71.4
2023-09-18T11:42:56.408Z,71.5
2023-09-18T11:43:58.390Z,70.9
2023-09-18T11:45:00.952Z,72.5
2023-09-18T11:46:03.337Z,72.2
2023-09-18T11:47:05.206Z,72.5
2023-09-18T11:48:07.037Z,72.5
2023-09-18T11:49:08.570Z,73.5
2023-09-18T11:50:10.749Z,73.8
2023-09-18T11:51:12.808Z,73.8
2023-09-18T11:52:14.620Z,73.6
2023-09-18T11:53:17.183Z,72.2
2023-09-18T11:54:21.084Z,72.3
2023-09-18T11:55:22.112Z,72.6
2023-09-18T11:56:23.819Z,72.5
2023-09-18T11:57:25.455Z,71
2023-09-18T11:58:27.712Z,70.9
2023-09-18T11:59:29.530Z,72.1
2023-09-18T12:00:31.506Z,73
2023-09-18T12:01:33.587Z,71.5
2023-09-18T12:02:35.622Z,71.5
2023-09-18T12:03:37.758Z,71.5
2023-09-18T12:04:39.486Z,71.1
2023-09-18T12:05:41.610Z,71.4
2023-09-18T12:06:43.652Z,72.2
2023-09-18T12:07:45.600Z,71.8
2023-09-18T12:08:47.518Z,71.7
2023-09-18T12:09:49.449Z,72.9
2023-09-18T12:10:51.452Z,73.2
2023-09-18T12:11:53.691Z,72.4
2023-09-18T12:12:55.469Z,72.8
2023-09-18T12:13:57.465Z,71
2023-09-18T12:14:59.574Z,70.7
2023-09-18T12:16:01.635Z,71
2023-09-18T12:17:03.802Z,71.5
2023-09-18T12:18:05.816Z,70.4
2023-09-18T12:19:07.495Z,71.1
2023-09-18T12:20:09.434Z,68.8
2023-09-18T12:21:11.453Z,70
2023-09-18T12:22:13.473Z,70.6
2023-09-18T12:23:15.750Z,71.5
2023-09-18T12:24:17.456Z,71.7
2023-09-18T12:25:19.536Z,68.4
2023-09-18T12:26:22.095Z,68
2023-09-18T12:27:26.174Z,69.5
2023-09-18T12:28:27.166Z,68.6
2023-09-18T12:29:28.741Z,66.5
2023-09-18T12:30:30.644Z,67.1
2023-09-18T12:31:33.094Z,66.2
2023-09-18T12:32:35.475Z,65.6
2023-09-18T12:33:37.024Z,65.1
2023-09-18T12:34:40.150Z,65.6
2023-09-18T12:35:40.811Z,65.5
2023-09-18T12:36:42.659Z,65.3
2023-09-18T12:37:44.799Z,65.8
2023-09-18T12:38:46.745Z,66.7
2023-09-18T12:39:49.326Z,67.9
2023-09-18T12:40:51.980Z,68.5
2023-09-18T12:41:52.811Z,69
2023-09-18T12:42:54.692Z,70.1
2023-09-18T12:43:59.350Z,67.9
2023-09-18T12:44:59.751Z,66.6
2023-09-18T12:46:02.070Z,67.2
2023-09-18T12:47:03.736Z,66.9
2023-09-18T12:48:06.586Z,68
2023-09-18T12:49:07.777Z,68.8
2023-09-18T12:50:09.734Z,67.6
2023-09-18T12:51:15.388Z,68.6
2023-09-18T12:52:16.138Z,67.5
2023-09-18T12:53:17.917Z,68.8
2023-09-18T12:54:19.735Z,66.9
2023-09-18T12:55:24.860Z,65.3
2023-09-18T12:56:26.202Z,65.5
2023-09-18T12:57:27.539Z,65
2023-09-18T12:58:30.857Z,66.1
2023-09-18T12:59:31.633Z,65.9
2023-09-18T13:00:33.429Z,62.9
2023-09-18T13:01:36.060Z,61.2
2023-09-18T13:02:38.345Z,61.5
2023-09-18T13:03:41.052Z,62
2023-09-18T13:04:44.070Z,59
2023-09-18T13:05:45.345Z,58.5
2023-09-18T13:06:46.945Z,59.3
2023-09-18T13:07:49.437Z,60.7
2023-09-18T13:08:50.822Z,63.3
2023-09-18T13:09:54.126Z,63.3
2023-09-18T13:10:54.858Z,62.5
2023-09-18T13:11:57.135Z,61.3
2023-09-18T13:12:58.458Z,61.1
2023-09-18T13:14:00.510Z,60
2023-09-18T13:15:02.465Z,60.8
2023-09-18T13:16:04.608Z,61.6
2023-09-18T13:17:06.645Z,63.4
2023-09-18T13:18:08.625Z,63.5
2023-09-18T13:19:11.546Z,63.9
2023-09-18T13:20:12.486Z,64
2023-09-18T13:21:14.793Z,65.1
2023-09-18T13:22:17.052Z,64.5
2023-09-18T13:23:23.314Z,64.4
2023-09-18T13:24:24.393Z,64.8
2023-09-18T13:25:26.600Z,65.7
2023-09-18T13:26:28.164Z,64.4
2023-09-18T13:27:32.775Z,65.2
2023-09-18T13:28:37.720Z,64.3
2023-09-18T13:29:38.827Z,64
2023-09-18T13:30:41.219Z,63.7
2023-09-18T13:31:44.498Z,63.4
2023-09-18T13:32:45.678Z,63.5
2023-09-18T13:34:53.391Z,64.6
2023-09-18T13:35:55.631Z,64
2023-09-18T13:36:57.498Z,63.4
2023-09-18T13:37:59.233Z,64
2023-09-18T13:39:01.437Z,62.5
2023-09-18T13:40:03.194Z,61.8
2023-09-18T13:41:05.195Z,61.9
2023-09-18T13:42:07.608Z,62.6
2023-09-18T13:43:09.350Z,63.2
2023-09-18T13:44:11.370Z,63
2023-09-18T13:45:13.196Z,63.3
2023-09-18T13:46:15.343Z,63.7
2023-09-18T13:47:17.212Z,63.8
2023-09-18T13:48:19.507Z,63.2
2023-09-18T13:49:21.529Z,63.6
2023-09-18T13:50:26.525Z,63.4
2023-09-18T13:51:27.225Z,63
2023-09-18T13:52:28.912Z,63.8
2023-09-18T13:53:31.214Z,64.3
2023-09-18T13:54:33.272Z,63.5
2023-09-18T13:55:37.899Z,65.5
2023-09-18T13:56:38.486Z,67.1